createdAt,value
2019-02-18T00:00:50.010Z,10.5
2019-02-18T00:02:50.037Z,10.5
2019-02-18T00:04:50.326Z,10.9
2019-02-18T00:06:50.316Z,10.5
2019-02-18T00:08:50.201Z,10.5
2019-02-18T00:10:50.247Z,10.9
2019-02-18T00:12:50.240Z,10.9
2019-02-18T00:14:50.112Z,10.1
2019-02-18T00:16:50.162Z,10.4
2019-02-18T00:18:50.105Z,10.7
2019-02-18T00:20:50.016Z,10.7
2019-02-18T00:22:49.886Z,10.4
2019-02-18T00:24:49.829Z,10.1
2019-02-18T00:26:49.900Z,9.9
2019-02-18T00:28:49.841Z,10.4
2019-02-18T00:30:49.782Z,10.6
2019-02-18T00:32:49.681Z,10.6
2019-02-18T00:34:49.928Z,9.8
2019-02-18T00:36:49.875Z,9.8
2019-02-18T00:38:49.885Z,10.7
2019-02-18T00:40:49.847Z,10.7
2019-02-18T00:42:49.699Z,10.3
2019-02-18T00:44:49.591Z,10.9
2019-02-18T00:46:49.653Z,10.7
2019-02-18T00:48:49.572Z,10.2
2019-02-18T00:50:49.598Z,10.8
2019-02-18T00:52:50.542Z,10.8
2019-02-18T00:54:50.381Z,10.1
2019-02-18T00:56:50.314Z,10.7
2019-02-18T00:58:50.202Z,10.9
2019-02-18T01:00:50.098Z,10.8
2019-02-18T01:02:50.029Z,10.8
2019-02-18T01:04:50.229Z,10.6
2019-02-18T01:06:50.217Z,10.7
2019-02-18T01:08:50.178Z,10.7
2019-02-18T01:10:50.135Z,11.1
2019-02-18T01:12:50.042Z,11.1
2019-02-18T01:14:49.914Z,11.1
2019-02-18T01:16:49.971Z,10.9
2019-02-18T01:18:49.895Z,10.9
2019-02-18T01:20:49.755Z,11.2
2019-02-18T01:22:49.709Z,11.1
2019-02-18T01:24:49.618Z,11.3
2019-02-18T01:26:49.662Z,11.3
2019-02-18T01:28:50.517Z,11.3
2019-02-18T01:30:50.421Z,11.3
2019-02-18T01:32:50.377Z,10.9
2019-02-18T01:34:49.754Z,10.4
2019-02-18T01:36:49.890Z,10.4
2019-02-18T01:38:49.714Z,10.5
2019-02-18T01:40:49.648Z,10.5
2019-02-18T01:42:50.523Z,10.1
2019-02-18T01:44:50.447Z,11.1
2019-02-18T01:46:50.300Z,11.2
2019-02-18T01:48:50.154Z,11.2
2019-02-18T01:50:50.034Z,11.2
2019-02-18T01:52:49.925Z,11.2
2019-02-18T01:54:49.826Z,11.3
2019-02-18T01:56:49.811Z,11.3
2019-02-18T01:58:49.756Z,11.3
2019-02-18T02:00:49.684Z,11.3
2019-02-18T02:02:49.654Z,11.5
2019-02-18T02:04:49.974Z,11.6
2019-02-18T02:06:49.887Z,12.6
2019-02-18T02:08:49.781Z,12.6
2019-02-18T02:10:49.708Z,11.7
2019-02-18T02:12:49.854Z,12.5
2019-02-18T02:14:50.188Z,12.5
2019-02-18T02:16:50.284Z,12.2
2019-02-18T02:18:50.200Z,11.9
2019-02-18T02:20:50.268Z,11.9
2019-02-18T02:22:50.323Z,12.4
2019-02-18T02:24:50.287Z,12.0
2019-02-18T02:26:50.365Z,12.3
2019-02-18T02:28:50.259Z,12.3
2019-02-18T02:30:50.135Z,12.5
2019-02-18T02:32:50.124Z,12.7
2019-02-18T02:34:49.530Z,12.3
2019-02-18T02:36:50.496Z,12.3
2019-02-18T02:38:50.397Z,12.4
2019-02-18T02:40:50.366Z,12.7
2019-02-18T02:42:50.206Z,12.9
2019-02-18T02:44:50.112Z,12.7
2019-02-18T02:46:50.169Z,12.7
2019-02-18T02:48:50.099Z,12.0
2019-02-18T02:50:50.020Z,13.2
2019-02-18T02:52:49.865Z,13.6
2019-02-18T02:54:49.703Z,12.7
2019-02-18T02:56:49.719Z,12.7
2019-02-18T02:58:49.671Z,13.1
2019-02-18T03:00:49.629Z,12.8
2019-02-18T03:02:50.449Z,12.8
2019-02-18T03:04:49.665Z,13.1
2019-02-18T03:06:49.652Z,13.6
2019-02-18T03:08:49.690Z,13.1
2019-02-18T03:10:49.630Z,13.0
2019-02-18T03:12:49.749Z,13.1
2019-02-18T03:14:49.636Z,13.3
2019-02-18T03:16:49.633Z,13.3
2019-02-18T03:18:49.539Z,12.8
2019-02-18T03:20:50.420Z,12.9
2019-02-18T03:22:50.490Z,13.1
2019-02-18T03:24:50.312Z,12.8
2019-02-18T03:26:50.258Z,12.8
2019-02-18T03:28:50.132Z,12.7
2019-02-18T03:30:50.042Z,12.9
2019-02-18T03:32:49.893Z,13.2
2019-02-18T03:34:50.120Z,13.2
2019-02-18T03:36:50.005Z,13.2
2019-02-18T03:38:49.842Z,12.7
2019-02-18T03:40:49.861Z,14.2
2019-02-18T03:42:49.902Z,12.8
2019-02-18T03:44:49.771Z,12.8
2019-02-18T03:46:50.914Z,14.1
2019-02-18T03:48:49.816Z,13.7
2019-02-18T03:50:49.787Z,13.7
2019-02-18T03:52:49.654Z,14.3
2019-02-18T03:54:50.502Z,14.3
2019-02-18T03:56:50.515Z,14.4
2019-02-18T03:58:50.398Z,13.6
2019-02-18T04:00:50.270Z,13.6
2019-02-18T04:02:50.079Z,14.4
2019-02-18T04:04:50.325Z,14.4
2019-02-18T04:06:50.178Z,14.5
2019-02-18T04:08:50.012Z,14.5
2019-02-18T04:10:49.911Z,15.0
2019-02-18T04:12:49.772Z,14.1
2019-02-18T04:14:49.654Z,14.1
2019-02-18T04:16:49.696Z,14.5
2019-02-18T04:18:49.547Z,14.8
2019-02-18T04:20:50.384Z,13.9
2019-02-18T04:22:50.318Z,13.9
2019-02-18T04:24:50.193Z,13.9
2019-02-18T04:28:49.593Z,13.4
2019-02-18T04:30:50.530Z,14.1
2019-02-18T04:32:50.457Z,14.1
2019-02-18T04:34:49.707Z,14.1
2019-02-18T04:36:49.605Z,13.5
2019-02-18T04:38:54.519Z,13.4
2019-02-18T04:40:50.444Z,13.9
2019-02-18T04:42:50.550Z,14.2
2019-02-18T04:44:50.409Z,14.2
2019-02-18T04:46:50.234Z,13.7
2019-02-18T04:48:50.155Z,13.7
2019-02-18T04:50:50.024Z,13.3
2019-02-18T04:52:49.860Z,13.4
2019-02-18T04:54:49.656Z,13.4
2019-02-18T04:56:49.656Z,14.1
2019-02-18T04:58:49.562Z,13.7
2019-02-18T05:00:50.435Z,14.3
2019-02-18T05:02:50.236Z,14.3
2019-02-18T05:04:49.524Z,13.7
2019-02-18T05:06:50.398Z,14.0
2019-02-18T05:08:50.319Z,13.9
2019-02-18T05:10:50.180Z,15.0
2019-02-18T05:12:50.070Z,15.0
2019-02-18T05:14:49.910Z,14.5
2019-02-18T05:16:49.825Z,13.9
2019-02-18T05:18:49.709Z,14.3
2019-02-18T05:20:49.581Z,14.1
2019-02-18T05:22:50.544Z,14.1
2019-02-18T05:24:50.474Z,13.9
2019-02-18T05:26:49.983Z,14.4
2019-02-18T05:28:49.891Z,13.9
2019-02-18T05:30:49.702Z,14.6
2019-02-18T05:32:49.586Z,14.6
2019-02-18T05:34:49.925Z,15.0
2019-02-18T05:36:50.027Z,14.1
2019-02-18T05:38:49.965Z,15.0
2019-02-18T05:40:49.788Z,15.0
2019-02-18T05:42:49.713Z,14.0
2019-02-18T05:44:49.536Z,14.4
2019-02-18T05:46:50.505Z,14.8
2019-02-18T05:48:50.318Z,14.8
2019-02-18T05:50:50.143Z,14.5
2019-02-18T05:52:50.127Z,14.5
2019-02-18T05:54:49.993Z,15.3
2019-02-18T05:56:49.903Z,15.5
2019-02-18T05:58:49.766Z,15.5
2019-02-18T06:00:49.681Z,14.2
2019-02-18T06:02:49.529Z,14.9
2019-02-18T06:04:49.690Z,15.0
2019-02-18T06:06:49.531Z,16.1
2019-02-18T06:08:50.375Z,16.1
2019-02-18T06:10:50.211Z,15.3
2019-02-18T06:12:50.056Z,15.5
2019-02-18T06:14:49.877Z,15.2
2019-02-18T06:16:49.833Z,15.9
2019-02-18T06:18:49.670Z,15.9
2019-02-18T06:20:49.657Z,16.6
2019-02-18T06:22:50.500Z,16.8
2019-02-18T06:24:50.350Z,16.4
2019-02-18T06:26:50.276Z,15.2
2019-02-18T06:28:50.213Z,15.2
2019-02-18T06:30:50.099Z,16.0
2019-02-18T06:32:49.990Z,16.6
2019-02-18T06:34:50.127Z,17.4
2019-02-18T06:36:50.351Z,17.1
2019-02-18T06:38:50.272Z,17.1
2019-02-18T06:40:50.150Z,15.4
2019-02-18T06:42:49.944Z,16.5
2019-02-18T06:44:49.785Z,15.1
2019-02-18T06:46:49.722Z,15.7
2019-02-18T06:48:50.530Z,15.7
2019-02-18T06:50:50.401Z,15.8
2019-02-18T06:52:50.187Z,14.6
2019-02-18T06:54:50.023Z,15.0
2019-02-18T06:56:49.980Z,15.0
2019-02-18T06:58:49.857Z,15.4
2019-02-18T07:00:49.799Z,14.9
2019-02-18T07:02:49.640Z,14.5
2019-02-18T07:04:49.745Z,15.0
2019-02-18T07:06:49.810Z,15.0
2019-02-18T07:08:49.724Z,13.9
2019-02-18T07:10:50.276Z,14.2
2019-02-18T07:12:50.085Z,13.8
2019-02-18T07:14:49.919Z,13.8
2019-02-18T07:16:49.834Z,13.7
2019-02-18T07:18:49.645Z,13.0
2019-02-18T07:20:50.562Z,13.0
2019-02-18T07:22:49.547Z,13.2
2019-02-18T07:24:50.455Z,12.6
2019-02-18T07:26:50.343Z,12.6
2019-02-18T07:28:50.219Z,12.5
2019-02-18T07:30:50.087Z,12.1
2019-02-18T07:32:50.014Z,12.1
2019-02-18T07:34:50.257Z,12.1
2019-02-18T07:36:50.113Z,11.9
2019-02-18T07:38:50.164Z,11.7
2019-02-18T07:40:50.117Z,11.1
2019-02-18T07:42:50.013Z,12.4
2019-02-18T07:44:49.893Z,12.4
2019-02-18T07:46:49.874Z,11.9
2019-02-18T07:48:49.750Z,18.8
2019-02-18T07:50:49.552Z,12.6
2019-02-18T07:52:50.421Z,11.9
2019-02-18T07:54:50.261Z,10.6
2019-02-18T07:56:50.256Z,10.6
2019-02-18T07:58:50.178Z,10.7
2019-02-18T08:00:50.048Z,11.1
2019-02-18T08:02:49.952Z,10.7
2019-02-18T08:04:50.138Z,11.1
2019-02-18T08:06:50.093Z,11.1
2019-02-18T08:08:49.941Z,11.0
2019-02-18T08:10:49.742Z,11.1
2019-02-18T08:12:49.883Z,11.8
2019-02-18T08:14:49.919Z,11.8
2019-02-18T08:16:49.924Z,11.0
2019-02-18T08:18:49.922Z,10.6
2019-02-18T08:20:49.990Z,10.7
2019-02-18T08:22:49.998Z,10.7
2019-02-18T08:24:50.042Z,10.3
2019-02-18T08:26:50.128Z,10.5
2019-02-18T08:28:50.155Z,10.4
2019-02-18T08:30:50.212Z,11.1
2019-02-18T08:32:50.291Z,11.1
2019-02-18T08:34:49.664Z,11.4
2019-02-18T08:36:49.707Z,11.5
2019-02-18T08:38:49.802Z,11.5
2019-02-18T08:40:49.800Z,13.8
2019-02-18T08:42:49.735Z,13.8
2019-02-18T08:44:49.759Z,12.9
2019-02-18T08:46:49.921Z,12.9
2019-02-18T08:48:49.971Z,13.1
2019-02-18T08:50:50.044Z,14.1
2019-02-18T08:52:49.996Z,14.1
2019-02-18T08:54:56.966Z,14.7
2019-02-18T08:56:50.082Z,13.8
2019-02-18T08:58:50.074Z,13.2
2019-02-18T09:00:50.156Z,14.6
2019-02-18T09:02:50.100Z,14.6
2019-02-18T09:04:49.534Z,14.0
2019-02-18T09:06:49.667Z,13.8
2019-02-18T09:08:49.744Z,14.2
2019-02-18T09:10:49.871Z,14.4
2019-02-18T09:12:50.000Z,14.4
2019-02-18T09:14:50.071Z,14.6
2019-02-18T09:16:50.169Z,15.2
2019-02-18T09:18:50.113Z,15.2
2019-02-18T09:20:50.066Z,14.3
2019-02-18T09:22:50.106Z,14.3
2019-02-18T09:24:49.638Z,14.7
2019-02-18T09:26:49.835Z,14.7
2019-02-18T09:28:49.794Z,14.4
2019-02-18T09:30:49.773Z,14.4
2019-02-18T09:32:49.825Z,14.4
2019-02-18T09:34:53.443Z,15.2
2019-02-18T09:36:49.562Z,15.3
2019-02-18T09:38:49.551Z,15.2
2019-02-18T09:40:51.773Z,15.8
2019-02-18T09:42:49.819Z,15.8
2019-02-18T09:44:49.845Z,16.1
2019-02-18T09:46:49.838Z,15.5
2019-02-18T09:48:49.838Z,15.3
2019-02-18T09:50:49.890Z,15.3
2019-02-18T09:52:49.857Z,15.8
2019-02-18T09:54:49.834Z,15.3
2019-02-18T09:56:49.983Z,15.6
2019-02-18T09:58:50.442Z,15.6
2019-02-18T10:00:50.498Z,15.6
2019-02-18T10:02:50.466Z,14.8
2019-02-18T10:04:49.874Z,16.0
2019-02-18T10:06:49.962Z,14.9
2019-02-18T10:08:49.994Z,14.6
2019-02-18T10:10:56.406Z,14.6
2019-02-18T10:12:49.549Z,15.4
2019-02-18T10:14:49.671Z,15.1
2019-02-18T10:16:49.849Z,15.1
2019-02-18T10:18:49.829Z,15.6
2019-02-18T10:20:49.872Z,15.6
2019-02-18T10:22:49.870Z,15.3
2019-02-18T10:24:51.204Z,15.3
2019-02-18T10:26:50.509Z,15.2
2019-02-18T10:28:49.551Z,15.2
2019-02-18T10:30:49.537Z,15.7
2019-02-18T10:32:49.712Z,14.6
2019-02-18T10:34:50.137Z,15.1
2019-02-18T10:36:50.187Z,14.7
2019-02-18T10:38:50.095Z,15.1
2019-02-18T10:40:50.165Z,15.1
2019-02-18T10:42:50.162Z,14.6
2019-02-18T10:44:50.461Z,15.1
2019-02-18T10:46:50.246Z,14.9
2019-02-18T10:48:50.354Z,14.9
2019-02-18T10:50:50.455Z,14.0
2019-02-18T10:52:49.910Z,14.5
2019-02-18T10:54:50.039Z,14.5
2019-02-18T10:56:50.148Z,14.6
2019-02-18T10:58:50.262Z,14.6
2019-02-18T11:00:50.591Z,14.1
2019-02-18T11:02:49.992Z,13.7
2019-02-18T11:04:50.332Z,13.7
2019-02-18T11:06:50.363Z,13.9
2019-02-18T11:08:50.498Z,13.9
2019-02-18T11:10:50.517Z,14.3
2019-02-18T11:12:49.543Z,14.5
2019-02-18T11:14:49.608Z,15.1
2019-02-18T11:16:49.746Z,15.3
2019-02-18T11:18:49.844Z,15.3
2019-02-18T11:20:49.910Z,15.6
2019-02-18T11:22:49.933Z,14.7
2019-02-18T11:24:50.128Z,15.9
2019-02-18T11:26:50.191Z,15.4
2019-02-18T11:28:50.189Z,15.4
2019-02-18T11:30:50.181Z,16.3
2019-02-18T11:32:50.313Z,16.3
2019-02-18T11:34:49.819Z,16.3
2019-02-18T11:36:49.911Z,16.3
2019-02-18T11:38:49.889Z,16.0
2019-02-18T11:40:49.897Z,15.8
2019-02-18T11:42:50.236Z,15.6
2019-02-18T11:44:50.516Z,16.3
2019-02-18T11:46:49.748Z,16.3
2019-02-18T11:48:49.958Z,15.2
2019-02-18T11:50:50.246Z,15.9
2019-02-18T11:52:50.394Z,15.9
2019-02-18T11:54:49.662Z,16.1
2019-02-18T11:56:49.996Z,16.2
2019-02-18T11:58:50.205Z,16.4
2019-02-18T12:00:50.418Z,16.7
2019-02-18T12:02:49.678Z,16.7
2019-02-18T12:04:50.287Z,17.6
2019-02-18T12:06:49.632Z,17.6
2019-02-18T12:08:49.939Z,19.0
2019-02-18T12:10:50.278Z,19.0
2019-02-18T12:12:50.510Z,18.2
2019-02-18T12:14:50.054Z,17.4
2019-02-18T12:16:49.861Z,17.4
2019-02-18T12:18:50.179Z,17.7
2019-02-18T12:20:50.407Z,17.7
2019-02-18T12:22:49.636Z,16.8
2019-02-18T12:24:49.937Z,16.8
2019-02-18T12:26:50.193Z,17.2
2019-02-18T12:28:50.386Z,16.9
2019-02-18T12:30:49.653Z,16.9
2019-02-18T12:32:49.940Z,16.4
2019-02-18T12:34:49.795Z,17.0
2019-02-18T12:36:50.152Z,17.9
2019-02-18T12:38:50.325Z,16.1
2019-02-18T12:40:49.567Z,16.6
2019-02-18T12:42:49.910Z,16.6
2019-02-18T12:44:50.198Z,16.3
2019-02-18T12:46:50.454Z,16.6
2019-02-18T12:48:49.783Z,16.0
2019-02-18T12:50:50.103Z,16.0
2019-02-18T12:52:50.662Z,16.0
2019-02-18T12:54:50.203Z,16.2
2019-02-18T12:56:49.887Z,15.8
2019-02-18T12:58:54.999Z,15.7
2019-02-18T13:00:50.357Z,15.7
2019-02-18T13:02:49.718Z,16.3
2019-02-18T13:04:50.259Z,15.6
2019-02-18T13:06:50.047Z,16.8
2019-02-18T13:08:50.353Z,16.6
2019-02-18T13:10:49.748Z,16.8
2019-02-18T13:12:50.194Z,16.8
2019-02-18T13:14:49.879Z,16.7
2019-02-18T13:16:49.949Z,15.7
2019-02-18T13:18:50.304Z,15.7
2019-02-18T13:20:49.818Z,16.4
2019-02-18T13:22:50.223Z,16.4
2019-02-18T13:24:50.487Z,16.4
2019-02-18T13:26:49.785Z,16.7
2019-02-18T13:28:50.122Z,16.7
2019-02-18T13:30:50.393Z,16.4
2019-02-18T13:32:49.907Z,16.4
2019-02-18T13:34:49.832Z,16.0
2019-02-18T13:36:50.232Z,16.7
2019-02-18T13:38:49.927Z,16.4
2019-02-18T13:40:50.211Z,16.4
2019-02-18T13:42:50.391Z,16.3
2019-02-18T13:44:50.103Z,16.4
2019-02-18T13:46:50.132Z,15.6
2019-02-18T13:48:49.623Z,15.9
2019-02-18T13:50:50.043Z,15.9
2019-02-18T13:52:50.285Z,15.9
2019-02-18T13:54:49.587Z,16.6
2019-02-18T13:56:49.933Z,16.6
2019-02-18T13:58:50.093Z,15.6
2019-02-18T14:00:50.397Z,15.6
2019-02-18T14:02:49.777Z,15.6
2019-02-18T14:04:50.499Z,15.6
2019-02-18T14:06:49.796Z,15.9
2019-02-18T14:08:50.016Z,16.0
2019-02-18T14:10:50.370Z,16.0
2019-02-18T14:12:49.717Z,15.3
2019-02-18T14:14:49.974Z,15.6
2019-02-18T14:16:50.255Z,16.0
2019-02-18T14:18:49.621Z,16.0
2019-02-18T14:20:49.846Z,14.9
2019-02-18T14:22:50.171Z,15.5
2019-02-18T14:24:50.355Z,15.5
2019-02-18T14:26:49.791Z,14.5
2019-02-18T14:28:50.104Z,14.5
2019-02-18T14:30:50.447Z,15.2
2019-02-18T14:32:49.664Z,13.9
2019-02-18T14:34:50.221Z,15.5
2019-02-18T14:36:49.635Z,15.5
2019-02-18T14:38:50.053Z,14.9
2019-02-18T14:40:50.531Z,14.6
2019-02-18T14:42:49.920Z,14.6
2019-02-18T14:44:52.064Z,15.1
2019-02-18T14:46:50.630Z,15.1
2019-02-18T14:48:50.419Z,14.5
2019-02-18T14:50:57.134Z,14.2
2019-02-18T14:52:50.519Z,13.5
2019-02-18T14:54:49.751Z,14.4
2019-02-18T14:56:50.135Z,13.5
2019-02-18T14:58:50.411Z,13.5
2019-02-18T15:00:49.826Z,13.5
2019-02-18T15:02:50.088Z,13.9
2019-02-18T15:04:49.801Z,13.9
2019-02-18T15:06:49.966Z,13.5
2019-02-18T15:08:50.072Z,13.5
2019-02-18T15:10:50.145Z,12.9
2019-02-18T15:12:50.085Z,13.6
2019-02-18T15:14:50.234Z,13.2
2019-02-18T15:16:50.290Z,13.3
2019-02-18T15:18:50.252Z,13.3
2019-02-18T15:20:50.226Z,13.4
2019-02-18T15:22:49.926Z,13.4
2019-02-18T15:24:50.026Z,14.0
2019-02-18T15:26:50.259Z,14.0
2019-02-18T15:28:50.274Z,14.4
2019-02-18T15:30:50.305Z,13.9
2019-02-18T15:32:50.558Z,14.8
2019-02-18T15:34:50.087Z,14.0
2019-02-18T15:36:50.211Z,14.0
2019-02-18T15:38:50.206Z,13.8
2019-02-18T15:40:50.628Z,14.4
2019-02-18T15:42:49.902Z,14.6
2019-02-18T15:44:49.919Z,14.6
2019-02-18T15:46:50.084Z,14.9
2019-02-18T15:48:50.357Z,14.5
2019-02-18T15:50:50.439Z,14.7
2019-02-18T15:52:50.538Z,14.4
2019-02-18T15:54:49.533Z,15.0
2019-02-18T15:56:49.985Z,15.0
2019-02-18T15:58:50.128Z,13.9
2019-02-18T16:00:50.160Z,15.1
2019-02-18T16:02:50.208Z,15.6
2019-02-18T16:04:49.762Z,14.8
2019-02-18T16:06:49.907Z,14.8
2019-02-18T16:08:50.059Z,16.1
2019-02-18T16:10:50.108Z,16.1
2019-02-18T16:12:51.332Z,15.4
2019-02-18T16:14:50.397Z,15.7
2019-02-18T16:16:50.506Z,15.7
2019-02-18T16:18:49.541Z,15.6
2019-02-18T16:20:49.658Z,16.2
2019-02-18T16:22:49.770Z,16.9
2019-02-18T16:24:49.875Z,17.6
2019-02-18T16:26:50.097Z,17.6
2019-02-18T16:28:50.222Z,15.6
2019-02-18T16:30:50.280Z,15.1
2019-02-18T16:32:50.422Z,15.4
2019-02-18T16:34:50.006Z,15.4
2019-02-18T16:36:50.238Z,14.6
2019-02-18T16:38:50.345Z,14.8
2019-02-18T16:40:50.727Z,14.7
2019-02-18T16:42:50.125Z,14.0
2019-02-18T16:44:50.557Z,14.0
2019-02-18T16:46:49.799Z,12.9
2019-02-18T16:48:50.040Z,12.6
2019-02-18T16:50:50.411Z,13.4
2019-02-18T16:52:50.390Z,13.4
2019-02-18T16:54:50.418Z,12.8
2019-02-18T16:56:49.740Z,13.4
2019-02-18T16:58:50.192Z,13.2
2019-02-18T17:00:57.938Z,12.6
2019-02-18T17:02:51.253Z,12.6
2019-02-18T17:04:49.852Z,12.5
2019-02-18T17:06:50.240Z,12.1
2019-02-18T17:08:50.435Z,11.8
2019-02-18T17:10:50.556Z,11.6
2019-02-18T17:12:49.754Z,11.6
2019-02-18T17:14:49.915Z,11.3
2019-02-18T17:16:49.986Z,11.3
2019-02-18T17:18:50.015Z,12.3
2019-02-18T17:20:50.174Z,12.3
2019-02-18T17:22:50.320Z,12.9
2019-02-18T17:24:50.373Z,12.2
2019-02-18T17:26:49.549Z,11.9
2019-02-18T17:28:49.639Z,11.8
2019-02-18T17:30:49.810Z,12.2
2019-02-18T17:32:49.907Z,12.2
2019-02-18T17:34:50.296Z,11.9
2019-02-18T17:36:50.630Z,12.3
2019-02-18T17:38:50.222Z,12.2
2019-02-18T17:40:50.309Z,12.8
2019-02-18T17:42:50.399Z,12.8
2019-02-18T17:44:49.931Z,12.8
2019-02-18T17:46:49.982Z,12.9
2019-02-18T17:48:50.139Z,12.9
2019-02-18T17:50:50.266Z,12.3
2019-02-18T17:52:50.840Z,12.3
2019-02-18T17:54:50.154Z,12.2
2019-02-18T17:56:50.377Z,12.2
2019-02-18T17:58:50.420Z,12.7
2019-02-18T18:00:49.571Z,12.7
2019-02-18T18:02:49.811Z,12.9
2019-02-18T18:04:50.242Z,13.3
2019-02-18T18:06:50.372Z,12.8
2019-02-18T18:08:50.516Z,12.5
2019-02-18T18:10:49.658Z,12.5
2019-02-18T18:12:49.873Z,13.1
2019-02-18T18:14:49.985Z,12.8
2019-02-18T18:16:50.086Z,13.5
2019-02-18T18:18:50.179Z,13.5
2019-02-18T18:20:50.262Z,12.9
2019-02-18T18:22:50.276Z,14.0
2019-02-18T18:24:50.363Z,12.4
2019-02-18T18:26:50.487Z,13.0
2019-02-18T18:28:49.646Z,11.8
2019-02-18T18:30:49.971Z,11.8
2019-02-18T18:32:50.006Z,12.8
2019-02-18T18:34:50.539Z,11.9
2019-02-18T18:36:49.813Z,12.6
2019-02-18T18:38:50.198Z,12.6
2019-02-18T18:40:50.336Z,12.6
2019-02-18T18:42:50.446Z,12.3
2019-02-18T18:44:50.517Z,11.9
2019-02-18T18:46:50.239Z,12.6
2019-02-18T18:48:50.494Z,12.6
2019-02-18T18:50:49.525Z,12.3
2019-02-18T18:52:49.669Z,12.5
2019-02-18T18:54:50.172Z,12.8
2019-02-18T18:56:49.620Z,12.8
2019-02-18T18:58:49.700Z,12.4
2019-02-18T19:00:49.857Z,12.5
2019-02-18T19:02:50.306Z,12.9
2019-02-18T19:04:50.038Z,13.5
2019-02-18T19:06:50.118Z,13.4
2019-02-18T19:08:50.174Z,13.4
2019-02-18T19:10:50.432Z,13.4
2019-02-18T19:12:49.717Z,14.2
2019-02-18T19:14:49.755Z,14.2
2019-02-18T19:16:49.856Z,13.1
2019-02-18T19:18:50.345Z,13.1
2019-02-18T19:20:49.663Z,13.1
2019-02-18T19:22:49.721Z,13.1
2019-02-18T19:24:49.756Z,12.8
2019-02-18T19:26:50.033Z,12.8
2019-02-18T19:28:50.193Z,12.4
2019-02-18T19:30:50.199Z,12.5
2019-02-18T19:32:50.209Z,13.1
2019-02-18T19:34:49.697Z,13.1
2019-02-18T19:36:49.975Z,12.8
2019-02-18T19:38:49.959Z,12.4
2019-02-18T19:40:49.965Z,12.2
2019-02-18T19:42:49.952Z,11.5
2019-02-18T19:44:49.959Z,11.5
2019-02-18T19:46:50.060Z,12.4
2019-02-18T19:48:50.050Z,11.9
2019-02-18T19:50:50.187Z,11.6
2019-02-18T19:52:50.295Z,11.6
2019-02-18T19:54:50.357Z,11.6
2019-02-18T19:56:50.377Z,11.5
2019-02-18T19:58:50.463Z,12.3
2019-02-18T20:00:50.522Z,11.9
2019-02-18T20:02:50.516Z,11.7
2019-02-18T20:04:49.856Z,11.7
2019-02-18T20:06:49.964Z,12.0
2019-02-18T20:08:50.052Z,12.0
2019-02-18T20:10:50.003Z,11.1
2019-02-18T20:12:50.061Z,11.9
2019-02-18T20:14:50.114Z,11.9
2019-02-18T20:16:50.164Z,11.9
2019-02-18T20:18:50.270Z,11.6
2019-02-18T20:20:50.265Z,13.0
2019-02-18T20:22:50.341Z,11.6
2019-02-18T20:24:50.414Z,11.6
2019-02-18T20:26:49.541Z,11.7
2019-02-18T20:28:49.650Z,12.1
2019-02-18T20:30:49.767Z,12.1
2019-02-18T20:32:49.823Z,12.8
2019-02-18T20:34:50.189Z,12.8
2019-02-18T20:36:50.330Z,11.6
2019-02-18T20:38:50.286Z,11.9
2019-02-18T20:40:50.358Z,11.9
2019-02-18T20:42:50.357Z,10.9
2019-02-18T20:44:50.628Z,10.9
2019-02-18T20:46:49.691Z,11.4
2019-02-18T20:48:49.821Z,10.8
2019-02-18T20:50:49.878Z,10.8
2019-02-18T20:52:50.181Z,10.9
2019-02-18T20:54:50.148Z,10.9
2019-02-18T20:56:50.332Z,12.0
2019-02-18T20:58:50.329Z,11.8
2019-02-18T21:00:50.643Z,11.8
2019-02-18T21:02:49.889Z,11.4
2019-02-18T21:04:50.223Z,11.4
2019-02-18T21:06:50.270Z,11.3
2019-02-18T21:08:50.603Z,11.3
2019-02-18T21:10:49.787Z,13.4
2019-02-18T21:12:49.801Z,12.1
2019-02-18T21:14:49.847Z,12.1
2019-02-18T21:16:50.096Z,12.7
2019-02-18T21:18:50.492Z,12.5
2019-02-18T21:20:51.393Z,12.5
2019-02-18T21:22:50.444Z,12.7
2019-02-18T21:24:50.516Z,12.8
2019-02-18T21:26:49.577Z,12.9
2019-02-18T21:28:49.543Z,13.1
2019-02-18T21:30:50.514Z,12.1
2019-02-18T21:32:50.493Z,12.1
2019-02-18T21:34:49.995Z,12.0
2019-02-18T21:36:49.925Z,12.7
2019-02-18T21:38:49.779Z,12.7
2019-02-18T21:40:49.816Z,13.3
2019-02-18T21:42:49.705Z,13.3
2019-02-18T21:44:49.577Z,13.2
2019-02-18T21:46:49.584Z,13.5
2019-02-18T21:48:49.540Z,13.5
2019-02-18T21:50:50.315Z,13.8
2019-02-18T21:52:50.223Z,13.8
2019-02-18T21:54:50.123Z,14.3
2019-02-18T21:56:50.100Z,12.7
2019-02-18T21:58:49.912Z,12.6
2019-02-18T22:00:49.729Z,12.6
2019-02-18T22:02:49.953Z,13.0
2019-02-18T22:04:49.570Z,13.7
2019-02-18T22:06:50.488Z,12.5
2019-02-18T22:08:50.335Z,12.5
2019-02-18T22:10:50.578Z,12.8
2019-02-18T22:12:50.058Z,13.1
2019-02-18T22:14:49.982Z,12.7
2019-02-18T22:16:50.005Z,12.7
2019-02-18T22:18:49.850Z,12.7
2019-02-18T22:20:49.750Z,13.9
2019-02-18T22:22:49.761Z,13.5
2019-02-18T22:24:49.625Z,13.2
2019-02-18T22:26:49.666Z,13.2
2019-02-18T22:28:49.575Z,13.5
2019-02-18T22:30:49.556Z,13.5
2019-02-18T22:32:50.536Z,13.2
2019-02-18T22:34:50.113Z,13.9
2019-02-18T22:36:50.137Z,14.1
2019-02-18T22:38:50.029Z,14.5
2019-02-18T22:40:50.168Z,14.5
2019-02-18T22:42:49.766Z,15.2
2019-02-18T22:44:49.674Z,14.5
2019-02-18T22:46:49.741Z,14.5
2019-02-18T22:48:49.602Z,15.0
2019-02-18T22:50:50.497Z,14.9
2019-02-18T22:52:50.426Z,14.4
2019-02-18T22:54:50.303Z,14.2
2019-02-18T22:56:50.282Z,14.2
2019-02-18T22:58:50.110Z,13.7
2019-02-18T23:00:49.953Z,14.5
2019-02-18T23:02:49.961Z,15.0
2019-02-18T23:04:50.271Z,14.9
2019-02-18T23:06:50.225Z,14.9
2019-02-18T23:08:50.066Z,15.8
2019-02-18T23:10:50.255Z,15.0
2019-02-18T23:12:49.691Z,15.3
2019-02-18T23:14:50.869Z,15.3
2019-02-18T23:16:49.812Z,14.3
2019-02-18T23:18:49.698Z,14.3
2019-02-18T23:20:49.602Z,14.5
2019-02-18T23:22:49.625Z,14.5
2019-02-18T23:24:50.457Z,15.1
2019-02-18T23:26:50.452Z,15.1
2019-02-18T23:28:50.385Z,14.9
2019-02-18T23:30:50.316Z,15.1
2019-02-18T23:32:50.113Z,14.9
2019-02-18T23:34:50.292Z,14.9
2019-02-18T23:36:50.152Z,14.7
2019-02-18T23:38:50.216Z,14.0
2019-02-18T23:40:50.032Z,13.7
2019-02-18T23:42:49.878Z,13.7
2019-02-18T23:44:49.742Z,13.6
2019-02-18T23:46:49.732Z,13.6
2019-02-18T23:48:49.547Z,12.7
2019-02-18T23:50:50.400Z,12.7
2019-02-18T23:52:50.254Z,13.2
2019-02-18T23:54:50.115Z,13.2
2019-02-18T23:56:49.999Z,12.9
2019-02-18T23:58:49.861Z,12.8
